TKY20 EFHK-EPKK
Flight info
| Callsign | TKY20 |
|---|---|
| Flight time | N/A |
| Altitude | 36000 |
| Route | KOIVU DCT LARTI DCT NAVOT DCT LUTAL P870 BERIL/N0456F350 DCT SUWGI/N0456F360 DCT TITUV M985 SUTIK DCT EVINA M66 KUKAM |
| Aircraft | A320/M-SDE3FGHIRWY/LB1 |
Departure
| Time | 2026-05-07 17:43 |
|---|---|
| Airport | Helsinki Vantaa Airport (EFHK) |
Arrival
| Time | N/A |
|---|---|
| Airport | Kraków John Paul II International Airport (EPKK) |
| Time | Latitude | Longitude | Altitude | Speed | Heading |
|---|---|---|---|---|---|
| 2026-05-07 17:20 | 60.31936 | 24.96380 | 162 ft | 0 kts | 137° |
| 2026-05-07 17:39 | 60.31929 | 24.96393 | 161 ft | 6 kts | 137° |
| 2026-05-07 17:39 | 60.31944 | 24.96514 | 161 ft | 16 kts | 46° |
| 2026-05-07 17:40 | 60.32042 | 24.96735 | 161 ft | 23 kts | 47° |
| 2026-05-07 17:40 | 60.32154 | 24.96840 | 161 ft | 16 kts | 317° |
| 2026-05-07 17:40 | 60.32239 | 24.96740 | 161 ft | 13 kts | 331° |
| 2026-05-07 17:40 | 60.32314 | 24.96655 | 161 ft | 10 kts | 329° |
| 2026-05-07 17:41 | 60.32335 | 24.96630 | 161 ft | 0 kts | 329° |
| 2026-05-07 17:41 | 60.32344 | 24.96619 | 161 ft | 5 kts | 329° |
| 2026-05-07 17:42 | 60.32395 | 24.96559 | 162 ft | 9 kts | 329° |
| 2026-05-07 17:42 | 60.32415 | 24.96472 | 161 ft | 7 kts | 241° |
| 2026-05-07 17:42 | 60.32409 | 24.96458 | 162 ft | 0 kts | 231° |
| 2026-05-07 17:43 | 60.32378 | 24.96386 | 162 ft | 32 kts | 229° |
| 2026-05-07 17:43 | 60.32057 | 24.95677 | 162 ft | 102 kts | 227° |
| 2026-05-07 17:43 | 60.31458 | 24.94361 | 171 ft | 152 kts | 227° |
| 2026-05-07 17:43 | 60.30753 | 24.92795 | 792 ft | 148 kts | 225° |
| 2026-05-07 17:44 | 60.29954 | 24.91510 | 1492 ft | 148 kts | 210° |
| 2026-05-07 17:44 | 60.29042 | 24.90512 | 2054 ft | 154 kts | 210° |
| 2026-05-07 17:44 | 60.28030 | 24.89399 | 2307 ft | 176 kts | 210° |
| 2026-05-07 17:44 | 60.26886 | 24.88138 | 2566 ft | 199 kts | 210° |
| 2026-05-07 17:45 | 60.25606 | 24.86727 | 2886 ft | 221 kts | 210° |
| 2026-05-07 17:45 | 60.24204 | 24.85182 | 3429 ft | 235 kts | 210° |
| 2026-05-07 17:45 | 60.22655 | 24.83985 | 4159 ft | 244 kts | 194° |
| 2026-05-07 17:45 | 60.20983 | 24.83216 | 4955 ft | 249 kts | 194° |
| 2026-05-07 17:46 | 60.19276 | 24.82436 | 5743 ft | 254 kts | 194° |
| 2026-05-07 17:46 | 60.17539 | 24.81643 | 6543 ft | 258 kts | 194° |
| 2026-05-07 17:46 | 60.15806 | 24.80851 | 7340 ft | 260 kts | 194° |
| 2026-05-07 17:46 | 60.14030 | 24.80033 | 8094 ft | 268 kts | 194° |
| 2026-05-07 17:47 | 60.12153 | 24.79203 | 8635 ft | 281 kts | 194° |
| 2026-05-07 17:47 | 60.10227 | 24.78388 | 9465 ft | 284 kts | 194° |
| 2026-05-07 17:47 | 60.08284 | 24.77584 | 10297 ft | 286 kts | 194° |
| 2026-05-07 17:47 | 60.06274 | 24.76749 | 10638 ft | 306 kts | 194° |
| 2026-05-07 17:48 | 60.04108 | 24.75842 | 10829 ft | 330 kts | 194° |
| 2026-05-07 17:48 | 60.01807 | 24.74875 | 11239 ft | 343 kts | 195° |
| 2026-05-07 17:48 | 59.99455 | 24.73890 | 11910 ft | 347 kts | 195° |
| 2026-05-07 17:48 | 59.97075 | 24.72899 | 12633 ft | 351 kts | 195° |
| 2026-05-07 17:49 | 59.94676 | 24.71902 | 13342 ft | 354 kts | 196° |
| 2026-05-07 17:49 | 59.92252 | 24.70898 | 14032 ft | 357 kts | 197° |
| 2026-05-07 17:49 | 59.89810 | 24.69886 | 14657 ft | 360 kts | 197° |
| 2026-05-07 17:49 | 59.87383 | 24.68883 | 15289 ft | 362 kts | 197° |
| 2026-05-07 17:50 | 59.84911 | 24.67860 | 15932 ft | 364 kts | 197° |
| 2026-05-07 17:50 | 59.82424 | 24.66824 | 16541 ft | 366 kts | 198° |
| 2026-05-07 17:50 | 59.79915 | 24.65776 | 17167 ft | 369 kts | 198° |
| 2026-05-07 17:50 | 59.77394 | 24.64731 | 17794 ft | 371 kts | 198° |
| 2026-05-07 17:51 | 59.74855 | 24.63688 | 18407 ft | 374 kts | 198° |
| 2026-05-07 17:51 | 59.72293 | 24.62640 | 18940 ft | 377 kts | 198° |
| 2026-05-07 17:51 | 59.69720 | 24.61586 | 19488 ft | 378 kts | 198° |
| 2026-05-07 17:51 | 59.67140 | 24.60525 | 20041 ft | 380 kts | 198° |
| 2026-05-07 17:52 | 59.64537 | 24.59451 | 20585 ft | 382 kts | 198° |
| 2026-05-07 17:52 | 59.61928 | 24.58375 | 21109 ft | 384 kts | 198° |
| 2026-05-07 17:52 | 59.59309 | 24.57301 | 21632 ft | 386 kts | 198° |
| 2026-05-07 17:52 | 59.56671 | 24.56221 | 22140 ft | 388 kts | 198° |
| 2026-05-07 17:53 | 59.54054 | 24.55155 | 22623 ft | 390 kts | 198° |
| 2026-05-07 17:53 | 59.51393 | 24.54075 | 23103 ft | 392 kts | 198° |
| 2026-05-07 17:53 | 59.48718 | 24.52992 | 23564 ft | 394 kts | 198° |
| 2026-05-07 17:53 | 59.46027 | 24.51903 | 23949 ft | 396 kts | 198° |
| 2026-05-07 17:54 | 59.43323 | 24.50811 | 24314 ft | 398 kts | 198° |
| 2026-05-07 17:54 | 59.40602 | 24.49716 | 24644 ft | 400 kts | 198° |
| 2026-05-07 17:54 | 59.37860 | 24.48611 | 24991 ft | 402 kts | 198° |
| 2026-05-07 17:54 | 59.35107 | 24.47498 | 25333 ft | 405 kts | 198° |
| 2026-05-07 17:55 | 59.32343 | 24.46381 | 25646 ft | 407 kts | 198° |
| 2026-05-07 17:55 | 59.29564 | 24.45259 | 25976 ft | 409 kts | 198° |
| 2026-05-07 17:55 | 59.26771 | 24.44136 | 26296 ft | 411 kts | 198° |
| 2026-05-07 17:55 | 59.23962 | 24.43009 | 26609 ft | 413 kts | 198° |
| 2026-05-07 17:56 | 59.21142 | 24.41879 | 26910 ft | 415 kts | 198° |
| 2026-05-07 17:56 | 59.18301 | 24.40745 | 27232 ft | 417 kts | 198° |
| 2026-05-07 17:56 | 59.15451 | 24.39612 | 27524 ft | 419 kts | 198° |
| 2026-05-07 17:56 | 59.12585 | 24.38476 | 27803 ft | 421 kts | 197° |
| 2026-05-07 17:57 | 59.09705 | 24.37338 | 28079 ft | 423 kts | 197° |
| 2026-05-07 17:57 | 59.07789 | 24.36582 | 28257 ft | 424 kts | 197° |
| 2026-05-07 17:57 | 59.03903 | 24.35049 | 28606 ft | 427 kts | 197° |
| 2026-05-07 17:57 | 59.00982 | 24.33893 | 28857 ft | 429 kts | 197° |
| 2026-05-07 17:58 | 58.98054 | 24.32733 | 29092 ft | 430 kts | 197° |
| 2026-05-07 17:58 | 58.95114 | 24.31574 | 29333 ft | 432 kts | 197° |
| 2026-05-07 17:58 | 58.92163 | 24.30413 | 29559 ft | 433 kts | 197° |
| 2026-05-07 17:58 | 58.89205 | 24.29256 | 29844 ft | 433 kts | 197° |
| 2026-05-07 17:59 | 58.86253 | 24.28105 | 30174 ft | 432 kts | 197° |
| 2026-05-07 17:59 | 58.83312 | 24.26962 | 30455 ft | 431 kts | 197° |
| 2026-05-07 17:59 | 58.80372 | 24.25818 | 30734 ft | 430 kts | 197° |
| 2026-05-07 17:59 | 58.77441 | 24.24675 | 31013 ft | 429 kts | 197° |
| 2026-05-07 18:00 | 58.74518 | 24.23539 | 31296 ft | 428 kts | 197° |
| 2026-05-07 18:00 | 58.71598 | 24.22406 | 31581 ft | 427 kts | 197° |
| 2026-05-07 18:00 | 58.68684 | 24.21275 | 31871 ft | 426 kts | 197° |
| 2026-05-07 18:00 | 58.65822 | 24.20167 | 32154 ft | 425 kts | 197° |
| 2026-05-07 18:01 | 58.62919 | 24.19046 | 32442 ft | 424 kts | 197° |
| 2026-05-07 18:01 | 58.60029 | 24.17931 | 32725 ft | 423 kts | 197° |
| 2026-05-07 18:01 | 58.57149 | 24.16822 | 33020 ft | 422 kts | 197° |
| 2026-05-07 18:01 | 58.54272 | 24.15712 | 33304 ft | 421 kts | 197° |
| 2026-05-07 18:02 | 58.48549 | 24.13512 | 33887 ft | 419 kts | 197° |
| 2026-05-07 18:02 | 58.46622 | 24.12776 | 34081 ft | 418 kts | 197° |
| 2026-05-07 18:02 | 58.43772 | 24.11689 | 34323 ft | 417 kts | 197° |
| 2026-05-07 18:03 | 58.40930 | 24.10607 | 34532 ft | 417 kts | 197° |
| 2026-05-07 18:03 | 58.38119 | 24.09540 | 34733 ft | 417 kts | 197° |
| 2026-05-07 18:03 | 58.35273 | 24.08464 | 34931 ft | 417 kts | 197° |
| 2026-05-07 18:03 | 58.32428 | 24.07388 | 35134 ft | 417 kts | 197° |
| 2026-05-07 18:04 | 58.29579 | 24.06312 | 35317 ft | 417 kts | 197° |
| 2026-05-07 18:04 | 58.26733 | 24.05235 | 35496 ft | 417 kts | 197° |
| 2026-05-07 18:04 | 58.23884 | 24.04158 | 35668 ft | 418 kts | 197° |
| 2026-05-07 18:04 | 58.21033 | 24.03081 | 35826 ft | 418 kts | 197° |
| 2026-05-07 18:05 | 58.18184 | 24.02005 | 36002 ft | 418 kts | 197° |
| 2026-05-07 18:05 | 58.12460 | 23.99848 | 36078 ft | 420 kts | 197° |
| 2026-05-07 18:06 | 58.06718 | 23.97700 | 36078 ft | 420 kts | 197° |
| 2026-05-07 18:06 | 58.00975 | 23.95564 | 36079 ft | 420 kts | 197° |
| 2026-05-07 18:07 | 57.95243 | 23.93436 | 36078 ft | 420 kts | 197° |
| 2026-05-07 18:07 | 57.89543 | 23.91325 | 36075 ft | 420 kts | 197° |
| 2026-05-07 18:08 | 57.83787 | 23.89342 | 36077 ft | 421 kts | 195° |
| 2026-05-07 18:08 | 57.78013 | 23.87485 | 36076 ft | 421 kts | 195° |
| 2026-05-07 18:09 | 57.72240 | 23.85624 | 36080 ft | 421 kts | 195° |
| 2026-05-07 18:09 | 57.66467 | 23.83732 | 36084 ft | 420 kts | 195° |
| 2026-05-07 18:10 | 57.60704 | 23.81844 | 36080 ft | 420 kts | 195° |
| 2026-05-07 18:10 | 57.54938 | 23.79971 | 36082 ft | 420 kts | 195° |
| 2026-05-07 18:11 | 57.49179 | 23.78100 | 36082 ft | 420 kts | 195° |
| 2026-05-07 18:11 | 57.43425 | 23.76245 | 36081 ft | 420 kts | 195° |
| 2026-05-07 18:12 | 57.37710 | 23.74402 | 36074 ft | 419 kts | 195° |
| 2026-05-07 18:12 | 57.31967 | 23.72545 | 36079 ft | 419 kts | 195° |
| 2026-05-07 18:13 | 57.26230 | 23.70705 | 36075 ft | 418 kts | 195° |
| 2026-05-07 18:13 | 57.20487 | 23.68882 | 36076 ft | 418 kts | 195° |
| 2026-05-07 18:14 | 57.14755 | 23.67055 | 36073 ft | 417 kts | 195° |
| 2026-05-07 18:14 | 57.09034 | 23.65232 | 36075 ft | 417 kts | 195° |
| 2026-05-07 18:15 | 57.03319 | 23.63423 | 36075 ft | 417 kts | 195° |
| 2026-05-07 18:15 | 56.97604 | 23.61627 | 36074 ft | 416 kts | 195° |
| 2026-05-07 18:16 | 56.91929 | 23.59843 | 36074 ft | 416 kts | 195° |
| 2026-05-07 18:16 | 56.86225 | 23.58053 | 36074 ft | 415 kts | 195° |
| 2026-05-07 18:17 | 56.80529 | 23.56262 | 36076 ft | 415 kts | 195° |
| 2026-05-07 18:17 | 56.74836 | 23.54495 | 36077 ft | 415 kts | 195° |
| 2026-05-07 18:18 | 56.69146 | 23.52735 | 36077 ft | 414 kts | 195° |
| 2026-05-07 18:18 | 56.63462 | 23.50973 | 36078 ft | 414 kts | 195° |
| 2026-05-07 18:19 | 56.57788 | 23.49224 | 36083 ft | 413 kts | 194° |
| 2026-05-07 18:19 | 56.52122 | 23.47479 | 36080 ft | 413 kts | 194° |
| 2026-05-07 18:20 | 56.46462 | 23.45744 | 36081 ft | 412 kts | 194° |
| 2026-05-07 18:20 | 56.40848 | 23.44025 | 36082 ft | 412 kts | 194° |
| 2026-05-07 18:21 | 56.35198 | 23.42308 | 36080 ft | 411 kts | 194° |
| 2026-05-07 18:21 | 56.29523 | 23.40861 | 36078 ft | 412 kts | 192° |
| 2026-05-07 18:22 | 56.23837 | 23.39569 | 36077 ft | 412 kts | 192° |
| 2026-05-07 18:22 | 56.18159 | 23.38256 | 36072 ft | 411 kts | 192° |
| 2026-05-07 18:23 | 56.12490 | 23.36898 | 36069 ft | 410 kts | 193° |
| 2026-05-07 18:23 | 56.06851 | 23.35534 | 36069 ft | 410 kts | 192° |
| 2026-05-07 18:24 | 56.01195 | 23.34176 | 36066 ft | 410 kts | 192° |
| 2026-05-07 18:24 | 55.95828 | 23.32890 | 36081 ft | 410 kts | 192° |
| 2026-05-07 18:25 | 55.90176 | 23.31543 | 36065 ft | 409 kts | 192° |
| 2026-05-07 18:25 | 55.84525 | 23.30205 | 36072 ft | 409 kts | 192° |
| 2026-05-07 18:26 | 55.78884 | 23.28873 | 36069 ft | 409 kts | 192° |
| 2026-05-07 18:26 | 55.73272 | 23.27560 | 36064 ft | 409 kts | 192° |
| 2026-05-07 18:27 | 55.67625 | 23.26234 | 36051 ft | 409 kts | 192° |
| 2026-05-07 18:27 | 55.61982 | 23.24913 | 36047 ft | 409 kts | 192° |
| 2026-05-07 18:28 | 55.56341 | 23.23595 | 36049 ft | 409 kts | 192° |
| 2026-05-07 18:28 | 55.50694 | 23.22284 | 36048 ft | 409 kts | 192° |
| 2026-05-07 18:29 | 55.45052 | 23.20964 | 36045 ft | 409 kts | 192° |
| 2026-05-07 18:29 | 55.39402 | 23.19650 | 36044 ft | 409 kts | 192° |
| 2026-05-07 18:30 | 55.33793 | 23.18355 | 36038 ft | 409 kts | 192° |
| 2026-05-07 18:30 | 55.28139 | 23.17052 | 36037 ft | 409 kts | 192° |
| 2026-05-07 18:31 | 55.22486 | 23.15749 | 36037 ft | 409 kts | 191° |
| 2026-05-07 18:31 | 55.16828 | 23.14458 | 36033 ft | 410 kts | 191° |
| 2026-05-07 18:32 | 55.12666 | 23.13428 | 36054 ft | 411 kts | 194° |
| 2026-05-07 18:32 | 55.09854 | 23.12515 | 36194 ft | 412 kts | 193° |
| 2026-05-07 18:32 | 55.08325 | 23.12048 | 36323 ft | 412 kts | 193° |